Página principal
METAR-TAF:

METAR-TAF

Aeroportos :

Brunei, Brunei

latitude: 04-56N, longitude: 114-56E, altura: 22 m

Observação actual do tempo

O boletim foi feito há 49 minutos, às 18:00 UTC
Vento 3 kt de su-sudoeste
Temperatura 25°C
Humidade 100%
Pressão 1011 hPa
Visibilidade 10 km ou mais
Poucas nuvensa uma altura de 500 ft
Nuvens fragmentadasa uma altura de 30000 ft

METAR: WBSB 271800Z 20003KT 9999 FEW005 BKN300 25/25 Q1011 NOSIG

Hora: 02:49 (18:49 UTC)

Previsão

O boletim foi feito há 1 hora e 59 minutos, às 16:50 UTC
Previsão válida de 27 às 18 UTC a 29 às 00 UTC
Vento 2 kt de su-sudoeste
Visibilidade 10 km ou mais
Poucas nuvensa uma altura de 1400 ft
Tornando-se
de 28 às 03 UTC a 28 às 05 UTC
Vento 8 kt de noroeste
Poucas nuvensa uma altura de 1600 ft
Poucas nuvensa uma altura de 1700 ft, Cumulonimbus.

TAF: WBSB 271650Z 2718/2900 20002KT 9999 FEW014 BECMG 2803/2805 32008KT FEW016 FEW017CB

Observações e previsões do tempo de mais de 4000 aeroportos (mensagens METAR e TAF).

As estações disponíveis são os pontos amarelos e vermelhos sobre o mapa.

Mova o rato sobre o mapa para ver o nome da estação.

Depois clique no ponto para visualizar as observações e previsões meteorológicas.

Para alterar o mapa : clique nos botões verdes com uma cruz preta para aumentar o zoom; no botão verde com uma pitada de zoom; ou nas setas verdes para mapas adjacentes.


METAR-TAF: